Time,TemperatureF,DewpointF,PressureIn,WindDirection,WindDirectionDegrees,WindSpeedMPH,WindSpeedGustMPH,Humidity,HourlyPrecipIn,Conditions,Clouds,dailyrainin,SoftwareType,DateUTC
2013-02-01 00:15:00,23.6,8.6,29.48,West,267,20.0,34.0,52,0.00,,---,0.00,VWS V12.07,2013-02-01 05:15:00,
2013-02-01 00:25:00,23.5,8.9,29.48,WSW,249,11.0,34.0,53,0.00,,---,0.00,VWS V12.07,2013-02-01 05:25:00,
2013-02-01 00:35:00,23.3,8.7,29.49,West,281,22.0,33.0,53,0.00,,---,0.00,VWS V12.07,2013-02-01 05:35:00,
2013-02-01 00:46:00,23.2,8.6,29.48,West,269,15.0,33.0,53,0.00,,---,0.00,VWS V12.07,2013-02-01 05:46:00,
2013-02-01 00:56:00,23.2,8.2,29.48,West,277,24.0,35.0,52,0.00,,---,0.00,VWS V12.07,2013-02-01 05:56:00,
2013-02-01 01:06:00,23.0,8.0,29.48,West,270,19.0,29.0,52,0.00,,---,0.00,VWS V12.07,2013-02-01 06:06:00,
2013-02-01 01:16:00,23.0,7.6,29.50,West,270,16.0,31.0,51,0.00,,---,0.00,VWS V12.07,2013-02-01 06:16:00,
2013-02-01 01:26:00,22.9,7.9,29.50,WSW,256,12.0,31.0,52,0.00,,---,0.00,VWS V12.07,2013-02-01 06:26:00,
2013-02-01 01:36:00,22.9,8.3,29.50,West,268,18.0,29.0,53,0.00,,---,0.00,VWS V12.07,2013-02-01 06:36:00,
2013-02-01 01:46:00,22.7,7.3,29.50,West,270,24.0,33.0,51,0.00,,---,0.00,VWS V12.07,2013-02-01 06:46:00,
2013-02-01 01:56:00,22.7,7.3,29.50,West,276,15.0,33.0,51,0.00,,---,0.00,VWS V12.07,2013-02-01 06:56:00,
2013-02-01 02:06:00,22.5,7.1,29.51,West,261,16.0,28.0,51,0.00,,---,0.00,VWS V12.07,2013-02-01 07:06:00,
2013-02-01 02:16:00,22.4,6.6,29.51,West,268,15.0,34.0,50,0.00,,---,0.00,VWS V12.07,2013-02-01 07:16:00,
2013-02-01 02:26:00,22.4,6.2,29.51,WSW,254,14.0,34.0,49,0.00,,---,0.00,VWS V12.07,2013-02-01 07:26:00,
2013-02-01 02:36:00,22.5,5.3,29.52,WNW,284,11.0,32.0,47,0.00,,---,0.00,VWS V12.07,2013-02-01 07:36:00,
2013-02-01 02:46:00,22.5,4.9,29.52,West,275,17.0,32.0,46,0.00,,---,0.00,VWS V12.07,2013-02-01 07:46:00,
2013-02-01 02:55:00,22.2,5.1,29.52,West,272,21.0,32.0,47,0.00,,---,0.00,VWS V12.07,2013-02-01 07:55:00,
2013-02-01 03:05:00,22.4,4.8,29.52,West,274,21.0,21.0,46,0.00,,---,0.00,VWS V12.07,2013-02-01 08:05:00,
2013-02-01 03:15:00,22.2,4.6,29.52,West,270,25.0,31.0,46,0.00,,---,0.00,VWS V12.07,2013-02-01 08:15:00,
2013-02-01 03:25:00,22.2,4.1,29.52,West,259,25.0,34.0,45,0.00,,---,0.00,VWS V12.07,2013-02-01 08:25:00,
2013-02-01 03:46:00,22.1,4.0,29.53,West,261,15.0,39.0,45,0.00,,---,0.00,VWS V12.07,2013-02-01 08:46:00,
2013-02-01 03:56:00,21.8,4.2,29.53,WSW,251,16.0,39.0,46,0.00,,---,0.00,VWS V12.07,2013-02-01 08:56:00,
2013-02-01 04:05:00,21.8,4.7,29.53,West,265,6.0,21.0,47,0.00,,---,0.00,VWS V12.07,2013-02-01 09:05:00,
2013-02-01 04:15:00,21.6,4.0,29.53,WSW,254,14.0,26.0,46,0.00,,---,0.00,VWS V12.07,2013-02-01 09:15:00,
2013-02-01 04:25:00,21.6,4.0,29.53,WSW,252,13.0,26.0,46,0.00,,---,0.00,VWS V12.07,2013-02-01 09:25:00,
2013-02-01 04:35:00,21.4,3.8,29.54,West,265,12.0,25.0,46,0.00,,---,0.00,VWS V12.07,2013-02-01 09:35:00,
2013-02-01 04:45:00,21.3,3.8,29.55,West,262,17.0,25.0,46,0.00,,---,0.00,VWS V12.07,2013-02-01 09:45:00,
2013-02-01 04:55:00,21.0,4.4,29.55,West,270,9.0,25.0,48,0.00,,---,0.00,VWS V12.07,2013-02-01 09:55:00,
2013-02-01 05:05:00,21.0,4.8,29.54,West,276,13.0,20.0,49,0.00,,---,0.00,VWS V12.07,2013-02-01 10:05:00,
2013-02-01 05:15:00,20.8,4.7,29.56,WSW,256,6.0,20.0,49,0.00,,---,0.00,VWS V12.07,2013-02-01 10:15:00,
2013-02-01 05:25:00,20.8,4.7,29.56,West,269,24.0,24.0,49,0.00,,---,0.00,VWS V12.07,2013-02-01 10:25:00,
2013-02-01 05:35:00,20.6,4.5,29.56,WSW,257,7.0,16.0,49,0.00,,---,0.00,VWS V12.07,2013-02-01 10:35:00,
2013-02-01 05:45:00,20.5,4.8,29.57,West,262,5.0,16.0,50,0.00,,---,0.00,VWS V12.07,2013-02-01 10:45:00,
2013-02-01 05:55:00,20.5,4.8,29.57,WNW,283,11.0,16.0,50,0.00,,---,0.00,VWS V12.07,2013-02-01 10:55:00,
2013-02-01 06:05:00,20.3,4.6,29.58,WSW,253,9.0,16.0,50,0.00,,---,0.00,VWS V12.07,2013-02-01 11:05:00,
2013-02-01 06:15:00,20.2,4.6,29.58,West,262,6.0,18.0,50,0.00,,---,0.00,VWS V12.07,2013-02-01 11:15:00,
2013-02-01 06:25:00,20.2,5.0,29.58,WNW,286,13.0,20.0,51,0.00,,---,0.00,VWS V12.07,2013-02-01 11:25:00,
2013-02-01 06:35:00,20.2,5.0,29.58,West,270,3.0,19.0,51,0.00,,---,0.00,VWS V12.07,2013-02-01 11:35:00,
2013-02-01 06:45:00,20.0,5.2,29.60,West,263,10.0,19.0,52,0.00,,---,0.00,VWS V12.07,2013-02-01 11:45:00,
2013-02-01 07:05:00,19.7,6.2,29.60,West,270,11.0,20.0,55,0.00,,---,0.00,VWS V12.07,2013-02-01 12:05:00,
2013-02-01 07:15:00,19.5,6.4,29.61,West,281,11.0,20.0,56,0.00,,---,0.00,VWS V12.07,2013-02-01 12:15:00,
2013-02-01 07:25:00,19.5,6.8,29.61,WSW,249,6.0,20.0,57,0.00,,---,0.00,VWS V12.07,2013-02-01 12:25:00,
2013-02-01 07:35:00,19.5,7.9,29.63,West,278,15.0,18.0,60,0.00,,---,0.00,VWS V12.07,2013-02-01 12:35:00,
2013-02-01 07:45:00,19.5,7.9,29.63,WSW,240,13.0,19.0,60,0.00,,---,0.00,VWS V12.07,2013-02-01 12:45:00,
2013-02-01 07:55:00,19.7,8.1,29.63,WSW,256,15.0,19.0,60,0.00,,---,0.00,VWS V12.07,2013-02-01 12:55:00,
2013-02-01 08:05:00,20.0,7.6,29.64,WSW,256,9.0,18.0,58,0.00,,---,0.00,VWS V12.07,2013-02-01 13:05:00,
2013-02-01 08:15:00,19.9,7.1,29.65,West,268,9.0,19.0,57,0.00,,---,0.00,VWS V12.07,2013-02-01 13:15:00,
2013-02-01 08:25:00,20.2,7.4,29.65,West,269,15.0,22.0,57,0.00,,---,0.00,VWS V12.07,2013-02-01 13:25:00,
2013-02-01 08:35:00,20.5,7.7,29.66,WSW,258,12.0,17.0,57,0.00,,---,0.00,VWS V12.07,2013-02-01 13:35:00,
2013-02-01 08:45:00,21.0,7.8,29.67,WNW,286,5.0,23.0,56,0.00,,---,0.00,VWS V12.07,2013-02-01 13:45:00,
2013-02-01 08:53:00,21.4,8.1,29.67,WSW,256,9.0,23.0,56,0.00,,---,0.00,VWS V12.07,2013-02-01 13:53:00,
2013-02-01 09:05:00,21.6,7.9,29.67,West,259,16.0,17.0,55,0.00,,---,0.00,VWS V12.07,2013-02-01 14:05:00,
2013-02-01 09:15:00,21.6,7.5,29.68,WSW,246,10.0,25.0,54,0.00,,---,0.00,VWS V12.07,2013-02-01 14:15:00,
2013-02-01 09:25:00,21.4,7.3,29.68,West,273,17.0,25.0,54,0.00,,---,0.00,VWS V12.07,2013-02-01 14:25:00,
2013-02-01 09:35:00,21.6,8.3,29.69,West,268,18.0,27.0,56,0.00,,---,0.00,VWS V12.07,2013-02-01 14:35:00,
2013-02-01 09:46:00,21.3,8.1,29.69,West,273,15.0,27.0,56,0.00,,---,0.00,VWS V12.07,2013-02-01 14:46:00,
2013-02-01 09:56:00,21.1,8.6,29.69,West,278,9.0,27.0,58,0.00,,---,0.00,VWS V12.07,2013-02-01 14:56:00,
2013-02-01 10:06:00,20.8,9.1,29.70,West,263,11.0,23.0,60,0.00,,---,0.00,VWS V12.07,2013-02-01 15:06:00,
2013-02-01 10:16:00,21.4,9.7,29.70,West,274,11.0,23.0,60,0.00,,---,0.00,VWS V12.07,2013-02-01 15:16:00,
2013-02-01 10:26:00,21.9,9.8,29.70,WSW,239,15.0,23.0,59,0.00,,---,0.00,VWS V12.07,2013-02-01 15:26:00,
2013-02-01 10:36:00,22.7,9.4,29.70,West,261,14.0,21.0,56,0.00,,---,0.00,VWS V12.07,2013-02-01 15:36:00,
2013-02-01 10:46:00,23.2,8.2,29.70,SW,234,15.0,21.0,52,0.00,,---,0.00,VWS V12.07,2013-02-01 15:46:00,
2013-02-01 10:56:00,23.6,8.6,29.70,WSW,243,9.0,21.0,52,0.00,,---,0.00,VWS V12.07,2013-02-01 15:56:00,
2013-02-01 11:06:00,24.1,7.3,29.70,NNW,335,6.0,25.0,48,0.00,,---,0.00,VWS V12.07,2013-02-01 16:06:00,
2013-02-01 11:16:00,23.5,7.2,29.70,NNW,332,7.0,25.0,49,0.00,,---,0.00,VWS V12.07,2013-02-01 16:16:00,
2013-02-01 11:26:00,22.5,8.0,29.70,WNW,299,11.0,26.0,53,0.00,,---,0.00,VWS V12.07,2013-02-01 16:26:00,
2013-02-01 11:36:00,23.0,8.0,29.71,NW,314,4.0,18.0,52,0.00,,---,0.00,VWS V12.07,2013-02-01 16:36:00,
2013-02-01 11:46:00,23.8,7.9,29.69,WNW,301,15.0,25.0,50,0.00,,---,0.00,VWS V12.07,2013-02-01 16:46:00,
2013-02-01 11:56:00,23.6,4.9,29.69,NW,326,9.0,26.0,44,0.00,,---,0.00,VWS V12.07,2013-02-01 16:56:00,
2013-02-01 12:06:00,23.0,4.3,29.69,NNW,340,4.0,24.0,44,0.00,,---,0.00,VWS V12.07,2013-02-01 17:06:00,
2013-02-01 12:16:00,23.5,3.8,29.69,WNW,300,13.0,26.0,42,0.00,,---,0.00,VWS V12.07,2013-02-01 17:16:00,
2013-02-01 12:26:00,22.9,6.2,29.69,NW,314,5.0,26.0,48,0.00,,---,0.00,VWS V12.07,2013-02-01 17:26:00,
2013-02-01 12:36:00,22.9,7.5,29.69,WNW,283,15.0,25.0,51,0.00,,---,0.00,VWS V12.07,2013-02-01 17:36:00,
2013-02-01 12:46:00,22.9,6.6,29.70,NW,304,9.0,25.0,49,0.00,,---,0.00,VWS V12.07,2013-02-01 17:46:00,
2013-02-01 12:55:00,23.5,6.2,29.70,NW,318,16.0,27.0,47,0.00,,---,0.00,VWS V12.07,2013-02-01 17:55:00,
2013-02-01 13:15:00,23.6,6.3,29.70,NW,315,15.0,21.0,47,0.00,,---,0.00,VWS V12.07,2013-02-01 18:15:00,
2013-02-01 13:25:00,22.7,6.0,29.70,WNW,282,10.0,23.0,48,0.00,,---,0.00,VWS V12.07,2013-02-01 18:25:00,
2013-02-01 13:35:00,22.5,5.8,29.70,West,276,11.0,13.0,48,0.00,,---,0.00,VWS V12.07,2013-02-01 18:35:00,
2013-02-01 13:45:00,22.9,5.2,29.70,NNW,330,11.0,19.0,46,0.00,,---,0.00,VWS V12.07,2013-02-01 18:45:00,
2013-02-01 13:55:00,22.7,4.1,29.70,West,280,9.0,21.0,44,0.00,,---,0.00,VWS V12.07,2013-02-01 18:55:00,
2013-02-01 14:05:00,23.6,3.9,29.70,NW,326,3.0,11.0,42,0.00,,---,0.00,VWS V12.07,2013-02-01 19:05:00,
2013-02-01 14:15:00,24.7,3.3,29.71,NNE,30,10.0,23.0,39,0.00,,---,0.00,VWS V12.07,2013-02-01 19:15:00,
2013-02-01 14:25:00,23.9,3.6,29.71,NW,325,6.0,23.0,41,0.00,,---,0.00,VWS V12.07,2013-02-01 19:25:00,
2013-02-01 14:35:00,24.5,4.2,29.71,WNW,303,16.0,16.0,41,0.00,,---,0.00,VWS V12.07,2013-02-01 19:35:00,
2013-02-01 14:45:00,25.7,4.7,29.71,NW,313,12.0,16.0,40,0.00,,---,0.00,VWS V12.07,2013-02-01 19:45:00,
2013-02-01 14:55:00,25.1,3.1,29.71,NNW,339,18.0,21.0,38,0.00,,---,0.00,VWS V12.07,2013-02-01 19:55:00,
2013-02-01 15:03:00,25.0,4.1,29.72,NNE,13,13.0,23.0,40,0.00,,---,0.00,VWS V12.07,2013-02-01 20:03:00,
2013-02-01 15:15:00,23.5,4.3,29.73,NNW,335,11.0,24.0,43,0.00,,---,0.00,VWS V12.07,2013-02-01 20:15:00,
2013-02-01 15:26:00,23.8,3.5,29.73,NNE,12,9.0,24.0,41,0.00,,---,0.00,VWS V12.07,2013-02-01 20:26:00,
2013-02-01 15:35:00,23.3,3.1,29.74,NW,314,6.0,19.0,41,0.00,,---,0.00,VWS V12.07,2013-02-01 20:35:00,
2013-02-01 15:45:00,23.0,3.3,29.75,North,360,5.0,19.0,42,0.00,,---,0.00,VWS V12.07,2013-02-01 20:45:00,
2013-02-01 15:55:00,21.9,3.3,29.75,North,360,3.0,22.0,44,0.00,,---,0.00,VWS V12.07,2013-02-01 20:55:00,
2013-02-01 16:05:00,21.4,3.8,29.76,North,10,0.0,12.0,46,0.00,,---,0.00,VWS V12.07,2013-02-01 21:05:00,
2013-02-01 16:15:00,21.1,4.9,29.77,NNW,337,1.0,22.0,49,0.00,,---,0.00,VWS V12.07,2013-02-01 21:15:00,
2013-02-01 16:25:00,20.8,5.1,29.77,NW,312,6.0,22.0,50,0.00,,---,0.00,VWS V12.07,2013-02-01 21:25:00,
2013-02-01 16:35:00,20.6,4.9,29.78,North,349,0.0,11.0,50,0.00,,---,0.00,VWS V12.07,2013-02-01 21:35:00,
2013-02-01 16:45:00,20.6,4.5,29.79,NNW,335,4.0,16.0,49,0.00,,---,0.00,VWS V12.07,2013-02-01 21:45:00,
2013-02-01 16:55:00,20.5,3.9,29.79,NNW,332,7.0,16.0,48,0.00,,---,0.00,VWS V12.07,2013-02-01 21:55:00,
2013-02-01 17:05:00,20.5,3.9,29.81,NNW,330,11.0,11.0,48,0.00,,---,0.00,VWS V12.07,2013-02-01 22:05:00,
2013-02-01 17:15:00,20.5,3.9,29.82,WSW,251,11.0,17.0,48,0.00,,---,0.00,VWS V12.07,2013-02-01 22:15:00,
2013-02-01 17:25:00,20.3,4.2,29.82,WNW,283,13.0,19.0,49,0.00,,---,0.00,VWS V12.07,2013-02-01 22:25:00,
2013-02-01 17:35:00,20.0,4.8,29.83,West,272,12.0,17.0,51,0.00,,---,0.00,VWS V12.07,2013-02-01 22:35:00,
2013-02-01 17:45:00,19.9,5.5,29.84,West,270,12.0,21.0,53,0.00,,---,0.00,VWS V12.07,2013-02-01 22:45:00,
2013-02-01 17:55:00,19.9,5.5,29.84,WNW,289,6.0,21.0,53,0.00,,---,0.00,VWS V12.07,2013-02-01 22:55:00,
2013-02-01 18:05:00,19.7,5.8,29.85,NW,308,2.0,13.0,54,0.00,,---,0.00,VWS V12.07,2013-02-01 23:05:00,
2013-02-01 18:15:00,19.5,3.9,29.86,West,274,13.0,24.0,50,0.00,,---,0.00,VWS V12.07,2013-02-01 23:15:00,
2013-02-01 18:25:00,19.2,2.3,29.86,NW,316,10.0,24.0,47,0.00,,---,0.00,VWS V12.07,2013-02-01 23:25:00,
2013-02-01 18:31:00,19.1,2.2,29.88,WNW,284,14.0,16.0,47,0.00,,---,0.00,VWS V12.07,2013-02-01 23:31:00,
2013-02-01 18:45:00,18.9,0.6,29.89,WNW,289,5.0,22.0,44,0.00,,---,0.00,VWS V12.07,2013-02-01 23:45:00,
2013-02-01 18:55:00,18.6,0.3,29.89,WNW,301,8.0,25.0,44,0.00,,---,0.00,VWS V12.07,2013-02-01 23:55:00,
2013-02-01 19:05:00,18.3,0.1,29.90,North,349,7.0,23.0,44,0.00,,---,0.00,VWS V12.07,2013-02-02 00:05:00,
2013-02-01 19:15:00,18.1,0.8,29.91,North,2,10.0,23.0,46,0.00,,---,0.00,VWS V12.07,2013-02-02 00:15:00,
2013-02-01 19:25:00,18.1,1.3,29.91,NW,310,7.0,23.0,47,0.00,,---,0.00,VWS V12.07,2013-02-02 00:25:00,
2013-02-01 19:35:00,18.0,1.2,29.91,WNW,282,2.0,13.0,47,0.00,,---,0.00,VWS V12.07,2013-02-02 00:35:00,
2013-02-01 19:45:00,17.8,1.5,29.92,WNW,284,4.0,13.0,48,0.00,,---,0.00,VWS V12.07,2013-02-02 00:45:00,
2013-02-01 19:55:00,17.5,1.2,29.92,WNW,294,10.0,16.0,48,0.00,,---,0.00,VWS V12.07,2013-02-02 00:55:00,
2013-02-01 20:05:00,17.7,0.0,29.93,WNW,291,13.0,20.0,45,0.00,,---,0.00,VWS V12.07,2013-02-02 01:05:00,
2013-02-01 20:16:00,17.5,-0.2,29.93,West,259,5.0,29.0,45,0.00,,---,0.00,VWS V12.07,2013-02-02 01:16:00,
2013-02-01 20:26:00,17.3,-0.9,29.93,WNW,292,9.0,29.0,44,0.00,,---,0.00,VWS V12.07,2013-02-02 01:26:00,
2013-02-01 20:45:00,17.2,0.0,29.94,WNW,291,3.0,22.0,46,0.00,,---,0.00,VWS V12.07,2013-02-02 01:45:00,
2013-02-01 20:55:00,17.0,0.3,29.94,WNW,289,5.0,22.0,47,0.00,,---,0.00,VWS V12.07,2013-02-02 01:55:00,
2013-02-01 21:05:00,17.0,0.7,29.94,WNW,289,3.0,16.0,48,0.00,,---,0.00,VWS V12.07,2013-02-02 02:05:00,
2013-02-01 21:16:00,16.9,0.6,29.95,WNW,284,0.0,16.0,48,0.00,,---,0.00,VWS V12.07,2013-02-02 02:16:00,
2013-02-01 21:35:00,16.5,0.7,29.95,WNW,301,0.0,15.0,49,0.00,,---,0.00,VWS V12.07,2013-02-02 02:35:00,
2013-02-01 21:45:00,16.5,0.2,29.95,NW,310,2.0,18.0,48,0.00,,---,0.00,VWS V12.07,2013-02-02 02:45:00,
2013-02-01 21:55:00,16.7,0.4,29.95,NW,304,15.0,20.0,48,0.00,,---,0.00,VWS V12.07,2013-02-02 02:55:00,
2013-02-01 22:05:00,16.5,0.2,29.96,NW,320,15.0,15.0,48,0.00,,---,0.00,VWS V12.07,2013-02-02 03:05:00,
2013-02-01 22:15:00,16.5,-0.2,29.96,NW,309,12.0,30.0,47,0.00,,---,0.00,VWS V12.07,2013-02-02 03:15:00,
2013-02-01 22:25:00,16.4,-0.3,29.96,West,278,6.0,30.0,47,0.00,,---,0.00,VWS V12.07,2013-02-02 03:25:00,
2013-02-01 22:35:00,16.2,0.4,29.96,NW,314,5.0,21.0,49,0.00,,---,0.00,VWS V12.07,2013-02-02 03:35:00,
2013-02-01 22:45:00,16.1,0.3,29.97,NNW,340,8.0,21.0,49,0.00,,---,0.00,VWS V12.07,2013-02-02 03:45:00,
2013-02-01 22:55:00,15.9,0.6,29.97,NW,319,5.0,21.0,50,0.00,,---,0.00,VWS V12.07,2013-02-02 03:55:00,
2013-02-01 23:05:00,15.9,0.1,29.97,WNW,292,11.0,21.0,49,0.00,,---,0.00,VWS V12.07,2013-02-02 04:05:00,
2013-02-01 23:15:00,15.7,0.4,29.97,WNW,296,4.0,21.0,50,0.00,,---,0.00,VWS V12.07,2013-02-02 04:15:00,
2013-02-01 23:25:00,15.6,0.3,29.97,WNW,295,5.0,21.0,50,0.00,,---,0.00,VWS V12.07,2013-02-02 04:25:00,
2013-02-01 23:35:00,15.4,0.5,29.98,NW,307,2.0,12.0,51,0.00,,---,0.00,VWS V12.07,2013-02-02 04:35:00,
2013-02-01 23:45:00,15.4,0.5,29.99,NW,314,12.0,16.0,51,0.00,,---,0.00,VWS V12.07,2013-02-02 04:45:00,
2013-02-01 23:55:00,15.4,0.9,29.99,NW,322,11.0,19.0,52,0.00,,---,0.00,VWS V12.07,2013-02-02 04:55:00,